createdAt,value
2023-03-19T00:00:42.260Z,67.24
2023-03-19T00:01:44.696Z,67.17
2023-03-19T00:02:32.856Z,67.22
2023-03-19T00:03:07.123Z,67.34
2023-03-19T00:03:41.135Z,67.28
2023-03-19T00:04:17.744Z,67.34
2023-03-19T00:05:00.360Z,67.29
2023-03-19T00:05:38.381Z,67.29
2023-03-19T00:06:17.456Z,67.30
2023-03-19T00:06:54.312Z,67.41
2023-03-19T00:07:28.287Z,67.29
2023-03-19T00:08:02.104Z,67.25
2023-03-19T00:08:37.118Z,67.27
2023-03-19T00:09:13.606Z,67.32
2023-03-19T00:09:49.607Z,67.28
2023-03-19T00:10:23.457Z,67.25
2023-03-19T00:11:08.182Z,67.21
2023-03-19T00:11:42.609Z,67.15
2023-03-19T00:12:16.972Z,67.13
2023-03-19T00:12:53.137Z,67.13
2023-03-19T00:13:34.448Z,67.13
2023-03-19T00:14:10.805Z,67.04
2023-03-19T00:14:44.753Z,67.10
2023-03-19T00:15:21.861Z,67.03
2023-03-19T00:15:58.731Z,67.00
2023-03-19T00:16:36.882Z,66.98
2023-03-19T00:17:11.496Z,67.03
2023-03-19T00:17:45.277Z,66.94
2023-03-19T00:18:21.670Z,66.88
2023-03-19T00:18:58.121Z,66.89
2023-03-19T00:19:31.789Z,66.87
2023-03-19T00:20:08.955Z,66.85
2023-03-19T00:20:49.191Z,66.82
2023-03-19T00:21:25.813Z,66.79
2023-03-19T00:21:59.812Z,66.75
2023-03-19T00:22:36.831Z,66.68
2023-03-19T00:23:10.573Z,66.67
2023-03-19T00:23:55.578Z,66.80
2023-03-19T00:24:29.313Z,66.78
2023-03-19T00:25:03.674Z,66.74
2023-03-19T00:25:43.381Z,66.80
2023-03-19T00:26:21.450Z,66.83
2023-03-19T00:26:55.708Z,67.00
2023-03-19T00:27:29.676Z,67.01
2023-03-19T00:28:06.287Z,67.14
2023-03-19T00:28:40.204Z,67.30
2023-03-19T00:29:15.629Z,67.29
2023-03-19T00:29:58.433Z,67.35
2023-03-19T00:30:34.581Z,67.40
2023-03-19T00:31:15.701Z,67.42
2023-03-19T00:32:16.820Z,67.41
2023-03-19T00:32:51.159Z,67.52
2023-03-19T00:33:26.145Z,67.63
2023-03-19T00:34:00.933Z,67.63
2023-03-19T00:34:35.325Z,67.75
2023-03-19T00:35:09.495Z,67.83
2023-03-19T00:35:45.522Z,68.04
2023-03-19T00:36:20.513Z,68.01
2023-03-19T00:36:54.184Z,68.17
2023-03-19T00:37:27.977Z,68.05
2023-03-19T00:38:02.139Z,68.07
2023-03-19T00:38:38.938Z,68.01
2023-03-19T00:39:13.185Z,68.09
2023-03-19T00:39:47.822Z,68.13
2023-03-19T00:40:22.322Z,68.16
2023-03-19T00:40:56.012Z,68.17
2023-03-19T00:41:31.577Z,68.22
2023-03-19T00:42:05.407Z,68.18
2023-03-19T00:42:39.119Z,68.21
2023-03-19T00:43:12.838Z,68.30
2023-03-19T00:43:48.421Z,68.31
2023-03-19T00:44:22.231Z,68.26
2023-03-19T00:44:56.048Z,68.29
2023-03-19T00:45:31.417Z,68.34
2023-03-19T00:46:05.883Z,68.37
2023-03-19T00:46:39.703Z,68.67
2023-03-19T00:47:18.139Z,68.48
2023-03-19T00:47:51.859Z,68.54
2023-03-19T00:48:25.863Z,68.57
2023-03-19T00:48:59.699Z,68.59
2023-03-19T00:49:33.396Z,68.62
2023-03-19T00:50:07.597Z,68.65
2023-03-19T00:50:41.292Z,68.68
2023-03-19T00:51:15.826Z,68.72
2023-03-19T00:51:49.658Z,68.95
2023-03-19T00:52:23.388Z,68.81
2023-03-19T00:52:57.444Z,68.76
2023-03-19T00:53:31.122Z,68.83
2023-03-19T00:54:04.902Z,68.84
2023-03-19T00:54:38.361Z,68.87
2023-03-19T00:55:12.057Z,68.75
2023-03-19T00:55:47.958Z,68.79
2023-03-19T00:56:21.609Z,68.79
2023-03-19T00:56:55.145Z,68.90
2023-03-19T00:57:28.704Z,68.79
2023-03-19T00:58:02.492Z,68.81
2023-03-19T00:58:38.913Z,68.76
2023-03-19T00:59:12.515Z,68.74
2023-03-19T00:59:46.788Z,68.79
2023-03-19T01:00:20.981Z,68.76
2023-03-19T01:00:55.928Z,68.85
2023-03-19T01:01:29.585Z,68.94
2023-03-19T01:02:04.238Z,69.06
2023-03-19T01:02:38.269Z,69.05
2023-03-19T01:03:14.530Z,68.99
2023-03-19T01:03:48.325Z,69.05
2023-03-19T01:04:24.214Z,68.99
2023-03-19T01:04:58.210Z,69.02
2023-03-19T01:05:32.141Z,69.00
2023-03-19T01:06:07.147Z,68.98
2023-03-19T01:06:40.922Z,68.89
2023-03-19T01:07:14.418Z,68.95
2023-03-19T01:07:51.317Z,68.85
2023-03-19T01:08:25.064Z,68.84
2023-03-19T01:08:58.631Z,68.79
2023-03-19T01:09:36.120Z,68.81
2023-03-19T01:10:10.765Z,68.81
2023-03-19T01:10:48.051Z,68.83
2023-03-19T01:11:24.686Z,68.80
2023-03-19T01:11:58.186Z,68.79
2023-03-19T01:12:31.804Z,68.81
2023-03-19T01:13:05.583Z,68.81
2023-03-19T01:13:39.664Z,68.77
2023-03-19T01:14:13.561Z,68.70
2023-03-19T01:14:50.578Z,68.73
2023-03-19T01:15:24.358Z,68.74
2023-03-19T01:15:58.188Z,68.68
2023-03-19T01:16:34.957Z,68.65
2023-03-19T01:17:08.942Z,68.60
2023-03-19T01:17:43.355Z,68.56
2023-03-19T01:18:19.522Z,68.56
2023-03-19T01:18:53.749Z,68.55
2023-03-19T01:19:27.657Z,68.61
2023-03-19T01:20:03.827Z,68.52
2023-03-19T01:20:40.022Z,68.52
2023-03-19T01:21:14.170Z,68.43
2023-03-19T01:21:52.690Z,68.60
2023-03-19T01:22:30.929Z,68.50
2023-03-19T01:23:08.970Z,68.54
2023-03-19T01:23:46.215Z,68.83
2023-03-19T01:24:23.260Z,68.74
2023-03-19T01:25:00.412Z,68.82
2023-03-19T01:25:40.697Z,68.99
2023-03-19T01:26:16.726Z,68.95
2023-03-19T01:26:51.265Z,68.95
2023-03-19T01:27:54.640Z,69.06
2023-03-19T01:28:29.218Z,69.04
2023-03-19T01:29:06.676Z,69.04
2023-03-19T01:29:40.882Z,69.10
2023-03-19T01:30:28.076Z,69.11
2023-03-19T01:31:09.195Z,69.15
2023-03-19T01:32:01.939Z,69.28
2023-03-19T01:32:52.555Z,69.08
2023-03-19T01:33:46.768Z,69.11
2023-03-19T01:34:27.956Z,69.17
2023-03-19T01:35:10.323Z,69.17
2023-03-19T01:35:47.868Z,69.29
2023-03-19T01:36:22.618Z,69.27
2023-03-19T01:37:16.982Z,69.23
2023-03-19T01:37:51.432Z,69.29
2023-03-19T01:38:25.775Z,69.33
2023-03-19T01:39:01.268Z,69.34
2023-03-19T01:39:35.158Z,69.42
2023-03-19T01:40:16.654Z,69.62
2023-03-19T01:40:50.365Z,69.53
2023-03-19T01:41:24.467Z,69.47
2023-03-19T01:42:04.813Z,69.58
2023-03-19T01:42:58.110Z,69.53
2023-03-19T01:43:54.156Z,69.89
2023-03-19T01:44:59.889Z,69.57
2023-03-19T01:46:27.647Z,69.48
2023-03-19T01:47:29.954Z,69.48
2023-03-19T01:48:43.034Z,69.47
2023-03-19T01:49:21.816Z,69.45
2023-03-19T01:50:01.166Z,69.54
2023-03-19T01:50:43.594Z,69.51
2023-03-19T01:51:34.935Z,69.58
2023-03-19T01:52:26.254Z,69.58
2023-03-19T01:53:29.566Z,69.59
2023-03-19T01:54:31.737Z,69.55
2023-03-19T01:55:34.855Z,69.51
2023-03-19T01:56:27.200Z,69.56
2023-03-19T01:57:23.931Z,69.61
2023-03-19T01:58:18.737Z,69.58
2023-03-19T01:59:45.959Z,69.61
2023-03-19T02:00:40.239Z,69.72
2023-03-19T02:01:16.941Z,69.73
2023-03-19T02:01:57.856Z,69.92
2023-03-19T02:02:34.297Z,69.92
2023-03-19T02:03:17.873Z,69.84
2023-03-19T02:04:00.983Z,69.94
2023-03-19T02:04:40.568Z,69.97
2023-03-19T02:05:17.597Z,70.06
2023-03-19T02:05:55.035Z,69.99
2023-03-19T02:06:30.622Z,70.05
2023-03-19T02:07:05.747Z,70.12
2023-03-19T02:07:44.523Z,70.12
2023-03-19T02:08:23.320Z,70.11
2023-03-19T02:08:59.003Z,70.10
2023-03-19T02:09:33.015Z,70.12
2023-03-19T02:10:12.192Z,70.08
2023-03-19T02:10:48.473Z,70.03
2023-03-19T02:11:22.634Z,70.00
2023-03-19T02:11:57.786Z,70.12
2023-03-19T02:12:32.524Z,70.01
2023-03-19T02:13:06.789Z,70.09
2023-03-19T02:13:43.549Z,69.89
2023-03-19T02:14:17.251Z,69.95
2023-03-19T02:14:50.946Z,69.94
2023-03-19T02:15:27.330Z,69.96
2023-03-19T02:16:02.102Z,69.97
2023-03-19T02:16:39.263Z,69.90
2023-03-19T02:17:13.328Z,69.95
2023-03-19T02:17:48.404Z,70.04
2023-03-19T02:18:22.919Z,69.92
2023-03-19T02:18:57.085Z,69.90
2023-03-19T02:19:49.445Z,69.85
2023-03-19T02:20:53.742Z,69.79
2023-03-19T02:21:27.745Z,69.73
2023-03-19T02:22:02.535Z,69.76
2023-03-19T02:22:39.995Z,69.72
2023-03-19T02:23:22.585Z,69.76
2023-03-19T02:24:26.204Z,69.72
2023-03-19T02:25:22.181Z,69.66
2023-03-19T02:26:14.158Z,69.68
2023-03-19T02:26:48.287Z,69.80
2023-03-19T02:27:22.722Z,69.75
2023-03-19T02:27:57.229Z,69.83
2023-03-19T02:28:33.841Z,69.77
2023-03-19T02:29:07.747Z,69.82
2023-03-19T02:29:41.869Z,69.78
2023-03-19T02:30:24.196Z,69.82
2023-03-19T02:31:01.102Z,69.84
2023-03-19T02:31:36.760Z,69.76
2023-03-19T02:32:11.458Z,69.88
2023-03-19T02:32:45.291Z,69.81
2023-03-19T02:33:19.903Z,69.79
2023-03-19T02:34:16.600Z,69.80
2023-03-19T02:34:50.218Z,69.66
2023-03-19T02:35:24.026Z,69.70
2023-03-19T02:35:59.129Z,69.68
2023-03-19T02:36:44.869Z,69.88
2023-03-19T02:37:26.478Z,69.78
2023-03-19T02:38:02.850Z,69.83
2023-03-19T02:38:41.237Z,69.74
2023-03-19T02:39:25.720Z,69.85
2023-03-19T02:40:08.495Z,69.79
2023-03-19T02:40:59.221Z,69.83
2023-03-19T02:41:34.878Z,69.79
2023-03-19T02:42:11.734Z,69.77
2023-03-19T02:42:45.370Z,69.66
2023-03-19T02:43:22.093Z,69.71
2023-03-19T02:44:00.153Z,69.67
2023-03-19T02:44:33.734Z,69.67
2023-03-19T02:45:08.979Z,69.66
2023-03-19T02:45:42.661Z,69.65
2023-03-19T02:46:16.354Z,69.66
2023-03-19T02:46:50.177Z,69.64
2023-03-19T02:47:25.174Z,69.63
2023-03-19T02:48:00.404Z,69.61
2023-03-19T02:48:35.187Z,69.65
2023-03-19T02:50:47.964Z,69.48
2023-03-19T02:51:21.503Z,69.39
2023-03-19T02:51:55.264Z,69.42
2023-03-19T02:52:28.860Z,69.42
2023-03-19T02:53:02.306Z,69.49
2023-03-19T02:53:36.723Z,69.50
2023-03-19T02:54:10.259Z,69.44
2023-03-19T02:54:43.722Z,69.49
2023-03-19T02:55:18.637Z,69.57
2023-03-19T02:55:52.050Z,69.60
2023-03-19T02:56:26.435Z,69.54
2023-03-19T02:56:59.989Z,69.53
2023-03-19T02:57:33.414Z,69.60
2023-03-19T02:58:08.333Z,69.58
2023-03-19T02:58:42.254Z,69.63
2023-03-19T02:59:15.728Z,69.65
2023-03-19T02:59:49.053Z,69.60
2023-03-19T03:00:22.568Z,69.61
2023-03-19T03:00:56.019Z,69.74
2023-03-19T03:01:30.188Z,69.72
2023-03-19T03:02:03.939Z,69.67
2023-03-19T03:02:37.439Z,69.75
2023-03-19T03:03:11.030Z,69.77
2023-03-19T03:03:44.459Z,69.84
2023-03-19T03:04:17.944Z,69.81
2023-03-19T03:04:51.371Z,69.80
2023-03-19T03:05:25.256Z,69.81
2023-03-19T03:05:58.782Z,69.85
2023-03-19T03:06:32.648Z,69.94
2023-03-19T03:07:08.766Z,69.91
2023-03-19T03:07:43.611Z,69.91
2023-03-19T03:08:17.226Z,69.90
2023-03-19T03:08:50.998Z,69.87
2023-03-19T03:09:24.499Z,69.97
2023-03-19T03:09:58.397Z,69.91
2023-03-19T03:10:33.569Z,69.96
2023-03-19T03:11:08.004Z,69.98
2023-03-19T03:11:42.063Z,69.95
2023-03-19T03:12:15.817Z,70.04
2023-03-19T03:12:49.181Z,70.12
2023-03-19T03:13:22.608Z,70.06
2023-03-19T03:13:56.580Z,70.02
2023-03-19T03:14:30.098Z,70.03
2023-03-19T03:15:03.743Z,70.01
2023-03-19T03:15:37.690Z,69.99
2023-03-19T03:16:11.407Z,69.97
2023-03-19T03:16:45.154Z,70.07
2023-03-19T03:17:18.630Z,70.10
2023-03-19T03:17:52.143Z,69.99
2023-03-19T03:18:26.013Z,70.03
2023-03-19T03:19:00.450Z,70.07
2023-03-19T03:19:34.062Z,70.04
2023-03-19T03:20:10.929Z,70.09
2023-03-19T03:20:44.838Z,69.99
2023-03-19T03:21:21.570Z,70.09
2023-03-19T03:21:54.985Z,70.08
2023-03-19T03:22:28.427Z,70.09
2023-03-19T03:23:01.849Z,70.10
2023-03-19T03:23:35.383Z,70.07
2023-03-19T03:24:09.665Z,70.11
2023-03-19T03:24:43.103Z,70.08
2023-03-19T03:25:16.800Z,70.10
2023-03-19T03:25:51.618Z,70.02
2023-03-19T03:26:25.509Z,70.04
2023-03-19T03:26:58.965Z,70.11
2023-03-19T03:27:33.232Z,70.05
2023-03-19T03:28:07.065Z,70.02
2023-03-19T03:28:40.791Z,69.96
2023-03-19T03:29:14.251Z,69.92
2023-03-19T03:29:47.973Z,69.92
2023-03-19T03:30:21.505Z,69.80
2023-03-19T03:31:02.413Z,69.75
2023-03-19T03:31:35.981Z,69.71
2023-03-19T03:32:09.662Z,69.71
2023-03-19T03:32:43.834Z,69.61
2023-03-19T03:33:17.648Z,69.60
2023-03-19T03:33:51.298Z,69.60
2023-03-19T03:34:24.629Z,69.60
2023-03-19T03:34:57.966Z,69.55
2023-03-19T03:35:31.347Z,69.60
2023-03-19T03:36:05.215Z,69.62
2023-03-19T03:36:38.888Z,69.61
2023-03-19T03:37:13.224Z,69.70
2023-03-19T03:37:46.812Z,69.72
2023-03-19T03:38:21.531Z,69.70
2023-03-19T03:38:55.132Z,69.74
2023-03-19T03:39:28.904Z,69.82
2023-03-19T03:40:07.129Z,69.86
2023-03-19T03:40:41.989Z,69.84
2023-03-19T03:41:15.612Z,69.87
2023-03-19T03:41:49.116Z,69.93
2023-03-19T03:42:23.103Z,69.89
2023-03-19T03:42:57.509Z,69.93
2023-03-19T03:43:31.108Z,69.97
2023-03-19T03:44:05.028Z,70.01
2023-03-19T03:44:40.091Z,70.01
2023-03-19T03:45:14.563Z,70.04
2023-03-19T03:45:50.002Z,70.03
2023-03-19T03:46:24.569Z,70.14
2023-03-19T03:46:58.240Z,70.07
2023-03-19T03:47:32.549Z,70.10
2023-03-19T03:48:06.571Z,70.19
2023-03-19T03:48:40.049Z,70.13
2023-03-19T03:49:13.441Z,70.18
2023-03-19T03:49:46.935Z,70.19
2023-03-19T03:50:20.263Z,70.19
2023-03-19T03:50:53.876Z,70.29
2023-03-19T03:51:30.126Z,70.26
2023-03-19T03:52:03.681Z,70.32
2023-03-19T03:52:38.622Z,70.39
2023-03-19T03:53:13.203Z,70.42
2023-03-19T03:53:46.618Z,70.40
2023-03-19T03:54:21.598Z,70.39
2023-03-19T03:54:54.995Z,70.42
2023-03-19T03:55:28.619Z,70.52
2023-03-19T03:56:02.731Z,70.48
2023-03-19T03:56:37.583Z,70.49
2023-03-19T03:57:11.035Z,70.35
2023-03-19T03:57:44.674Z,70.38
2023-03-19T03:58:18.290Z,70.35
2023-03-19T03:58:51.644Z,70.30
2023-03-19T03:59:26.462Z,70.28
2023-03-19T03:59:59.981Z,70.22
2023-03-19T04:00:33.828Z,70.28
2023-03-19T04:01:07.902Z,70.27
2023-03-19T04:01:41.392Z,70.26
2023-03-19T04:02:14.854Z,70.24
2023-03-19T04:02:48.793Z,70.29
2023-03-19T04:03:24.470Z,70.29
2023-03-19T04:03:58.164Z,70.29
2023-03-19T04:04:31.533Z,70.24
2023-03-19T04:05:05.332Z,70.23
2023-03-19T04:05:39.006Z,70.17
2023-03-19T04:06:18.969Z,70.19
2023-03-19T04:06:55.556Z,70.13
2023-03-19T04:07:38.933Z,70.19
2023-03-19T04:08:13.027Z,70.15
2023-03-19T04:08:46.787Z,70.13
2023-03-19T04:09:20.202Z,70.11
2023-03-19T04:09:54.289Z,70.18
2023-03-19T04:10:28.013Z,70.20
2023-03-19T04:11:01.466Z,70.16
2023-03-19T04:11:36.507Z,70.13
2023-03-19T04:12:10.126Z,70.22
2023-03-19T04:12:43.557Z,70.07
2023-03-19T04:13:17.271Z,70.20
2023-03-19T04:13:50.709Z,70.11
2023-03-19T04:14:24.289Z,70.30
2023-03-19T04:14:57.868Z,70.23
2023-03-19T04:15:31.431Z,70.14
2023-03-19T04:16:06.708Z,70.16
2023-03-19T04:16:40.345Z,70.14
2023-03-19T04:17:13.827Z,70.13
2023-03-19T04:17:47.540Z,70.11
2023-03-19T04:18:21.397Z,70.10
2023-03-19T04:18:55.204Z,70.07
2023-03-19T04:19:28.740Z,70.16
2023-03-19T04:20:04.667Z,70.13
2023-03-19T04:20:38.004Z,70.07
2023-03-19T04:21:11.333Z,70.10
2023-03-19T04:21:45.100Z,70.05
2023-03-19T04:22:18.522Z,70.02
2023-03-19T04:22:52.066Z,69.88
2023-03-19T04:23:26.342Z,69.93
2023-03-19T04:23:59.811Z,69.84
2023-03-19T04:24:33.428Z,69.85
2023-03-19T04:25:08.491Z,69.79
2023-03-19T04:25:42.205Z,69.89
2023-03-19T04:26:15.597Z,69.82
2023-03-19T04:26:49.926Z,69.83
2023-03-19T04:27:23.358Z,69.88
2023-03-19T04:27:58.568Z,69.92
2023-03-19T04:28:33.029Z,69.93
2023-03-19T04:29:08.952Z,69.92
2023-03-19T04:29:42.718Z,69.97
2023-03-19T04:30:16.366Z,69.99
2023-03-19T04:30:49.896Z,69.95
2023-03-19T04:31:24.215Z,69.95
2023-03-19T04:31:57.663Z,69.97
2023-03-19T04:32:31.193Z,69.99
2023-03-19T04:33:05.099Z,69.99
2023-03-19T04:33:38.974Z,70.02
2023-03-19T04:34:12.573Z,70.10
2023-03-19T04:34:46.038Z,70.04
2023-03-19T04:35:19.486Z,70.11
2023-03-19T04:35:53.179Z,70.14
2023-03-19T04:36:27.255Z,70.08
2023-03-19T04:37:00.936Z,70.08
2023-03-19T04:37:34.518Z,70.06
2023-03-19T04:38:07.956Z,70.05
2023-03-19T04:38:41.890Z,70.11
2023-03-19T04:39:15.411Z,70.16
2023-03-19T04:39:48.928Z,70.21
2023-03-19T04:40:22.481Z,70.13
2023-03-19T04:40:56.950Z,70.24
2023-03-19T04:41:30.929Z,70.18
2023-03-19T04:42:12.726Z,70.39
2023-03-19T04:42:55.263Z,70.33
2023-03-19T04:43:39.796Z,70.34
2023-03-19T04:44:13.814Z,70.40
2023-03-19T04:44:47.632Z,70.41
2023-03-19T04:45:21.894Z,70.50
2023-03-19T04:45:55.250Z,70.44
2023-03-19T04:46:28.890Z,70.54
2023-03-19T04:47:02.342Z,70.55
2023-03-19T04:47:40.192Z,70.57
2023-03-19T04:48:14.045Z,70.56
2023-03-19T04:48:47.450Z,70.58
2023-03-19T04:49:21.218Z,70.64
2023-03-19T04:49:54.916Z,70.60
2023-03-19T04:50:29.408Z,70.63
2023-03-19T04:51:04.061Z,70.61
2023-03-19T04:51:37.878Z,70.67
2023-03-19T04:52:11.358Z,70.62
2023-03-19T04:52:44.871Z,70.60
2023-03-19T04:53:20.542Z,70.58
2023-03-19T04:53:54.143Z,70.57
2023-03-19T04:54:28.581Z,70.63
2023-03-19T04:55:04.924Z,70.64
2023-03-19T04:55:43.803Z,70.58
2023-03-19T04:56:22.555Z,70.62
2023-03-19T04:56:56.400Z,70.63
2023-03-19T04:57:30.626Z,70.63
2023-03-19T04:58:04.761Z,70.70
2023-03-19T04:58:39.572Z,70.67
2023-03-19T04:59:13.976Z,70.66
2023-03-19T04:59:47.712Z,70.69
2023-03-19T05:00:22.490Z,70.71
2023-03-19T05:00:56.082Z,70.67
2023-03-19T05:01:35.513Z,70.70
2023-03-19T05:02:18.370Z,70.55
2023-03-19T05:02:51.867Z,70.71
2023-03-19T05:03:25.675Z,70.61
2023-03-19T05:03:59.474Z,70.66
2023-03-19T05:04:33.070Z,70.58
2023-03-19T05:05:13.664Z,70.59
2023-03-19T05:05:47.356Z,70.58
2023-03-19T05:06:21.589Z,70.50
2023-03-19T05:06:55.285Z,70.59
2023-03-19T05:07:28.691Z,70.63
2023-03-19T05:08:03.792Z,70.58
2023-03-19T05:08:37.371Z,70.58
2023-03-19T05:09:10.852Z,70.55
2023-03-19T05:09:46.463Z,70.58
2023-03-19T05:10:21.250Z,70.53
2023-03-19T05:10:54.686Z,70.57
2023-03-19T05:11:28.071Z,70.54
2023-03-19T05:12:13.139Z,70.44
2023-03-19T05:12:51.284Z,70.44
2023-03-19T05:13:24.852Z,70.49
2023-03-19T05:13:59.795Z,70.47
2023-03-19T05:14:37.125Z,70.45
2023-03-19T05:15:36.693Z,70.49
2023-03-19T05:16:13.550Z,70.54
2023-03-19T05:16:46.940Z,70.51
2023-03-19T05:17:20.988Z,70.58
2023-03-19T05:18:14.934Z,70.62
2023-03-19T05:18:50.896Z,70.60
2023-03-19T05:19:25.357Z,70.71
2023-03-19T05:19:59.551Z,70.67
2023-03-19T05:20:33.301Z,70.73
2023-03-19T05:21:13.859Z,70.77
2023-03-19T05:21:47.780Z,70.72
2023-03-19T05:22:22.584Z,70.77
2023-03-19T05:22:56.027Z,70.83
2023-03-19T05:23:36.631Z,70.78
2023-03-19T05:24:13.423Z,70.79
2023-03-19T05:24:47.422Z,70.82
2023-03-19T05:25:21.102Z,70.85
2023-03-19T05:25:54.886Z,70.91
2023-03-19T05:26:38.975Z,70.81
2023-03-19T05:27:24.885Z,70.80
2023-03-19T05:28:24.582Z,70.73
2023-03-19T05:28:58.735Z,70.83
2023-03-19T05:29:40.999Z,70.75
2023-03-19T05:30:53.137Z,70.71
2023-03-19T05:31:31.236Z,70.70
2023-03-19T05:32:05.589Z,70.70
2023-03-19T05:32:40.915Z,70.71
2023-03-19T05:33:18.766Z,70.47
2023-03-19T05:33:52.643Z,70.38
2023-03-19T05:34:26.087Z,70.43
2023-03-19T05:34:59.851Z,70.31
2023-03-19T05:35:33.562Z,70.29
2023-03-19T05:36:07.971Z,70.23
2023-03-19T05:36:58.093Z,70.22
2023-03-19T05:37:32.204Z,70.35
2023-03-19T05:38:05.855Z,70.28
2023-03-19T05:38:39.683Z,70.32
2023-03-19T05:39:15.703Z,70.41
2023-03-19T05:39:51.828Z,70.48
2023-03-19T05:40:25.555Z,70.53
2023-03-19T05:41:05.140Z,70.54
2023-03-19T05:41:46.720Z,70.56
2023-03-19T05:42:24.060Z,70.67
2023-03-19T05:42:57.820Z,70.69
2023-03-19T05:43:32.908Z,70.73
2023-03-19T05:44:06.993Z,71.32
2023-03-19T05:44:55.663Z,71.31
2023-03-19T05:45:35.993Z,71.15
2023-03-19T05:46:16.713Z,71.15
2023-03-19T05:46:50.970Z,71.22
2023-03-19T05:47:24.857Z,71.36
2023-03-19T05:48:00.961Z,71.50
2023-03-19T05:48:35.654Z,71.58
2023-03-19T05:49:09.533Z,71.52
2023-03-19T05:49:42.940Z,71.52
2023-03-19T05:50:19.136Z,71.68
2023-03-19T05:51:11.784Z,71.66
2023-03-19T05:51:48.786Z,71.62
2023-03-19T05:52:22.335Z,71.61
2023-03-19T05:52:56.096Z,71.70
2023-03-19T05:53:29.691Z,71.59
2023-03-19T05:54:33.083Z,71.53
2023-03-19T05:55:38.851Z,71.52
2023-03-19T05:56:15.393Z,71.69
2023-03-19T05:57:09.294Z,71.66
2023-03-19T05:57:54.303Z,71.66
2023-03-19T05:58:33.450Z,71.66
2023-03-19T05:59:06.910Z,71.72
2023-03-19T05:59:43.064Z,71.76
2023-03-19T06:00:52.312Z,71.92
2023-03-19T06:01:25.761Z,71.93
2023-03-19T06:02:13.130Z,71.92
2023-03-19T06:02:47.191Z,71.86
2023-03-19T06:03:37.850Z,72.02
2023-03-19T06:04:14.223Z,71.97
2023-03-19T06:04:47.806Z,71.89
2023-03-19T06:05:22.272Z,71.91
2023-03-19T06:05:58.036Z,72.03
2023-03-19T06:06:44.614Z,71.92
2023-03-19T06:07:18.377Z,72.00
2023-03-19T06:07:52.030Z,71.97
2023-03-19T06:08:41.124Z,71.88
2023-03-19T06:09:22.905Z,71.91
2023-03-19T06:10:01.284Z,71.91
2023-03-19T06:10:36.583Z,71.95
2023-03-19T06:11:13.588Z,71.91
2023-03-19T06:11:47.601Z,71.86
2023-03-19T06:12:39.494Z,71.75
2023-03-19T06:13:33.154Z,71.77
2023-03-19T06:14:10.976Z,71.75
2023-03-19T06:14:47.464Z,71.77
2023-03-19T06:15:49.617Z,71.76
2023-03-19T06:16:49.163Z,71.91
2023-03-19T06:17:23.176Z,71.92
2023-03-19T06:17:56.588Z,72.14
2023-03-19T06:18:30.029Z,72.27
2023-03-19T06:19:03.967Z,72.32
2023-03-19T06:19:37.467Z,72.32
2023-03-19T06:20:12.353Z,72.35
2023-03-19T06:20:47.732Z,72.40
2023-03-19T06:21:21.454Z,72.47
2023-03-19T06:21:54.867Z,72.47
2023-03-19T06:22:28.658Z,72.47
2023-03-19T06:23:02.460Z,72.75
2023-03-19T06:23:36.198Z,72.58
2023-03-19T06:24:10.779Z,72.79
2023-03-19T06:24:44.807Z,72.83
2023-03-19T06:25:18.292Z,72.70
2023-03-19T06:25:51.803Z,72.75
2023-03-19T06:26:26.934Z,72.79
2023-03-19T06:27:02.145Z,72.81
2023-03-19T06:27:35.943Z,72.78
2023-03-19T06:28:26.042Z,72.56
2023-03-19T06:28:59.980Z,72.56
2023-03-19T06:29:33.901Z,72.54
2023-03-19T06:30:16.236Z,72.48
2023-03-19T06:30:50.116Z,72.48
2023-03-19T06:31:49.991Z,72.31
2023-03-19T06:32:38.997Z,72.31
2023-03-19T06:33:15.819Z,72.30
2023-03-19T06:33:50.579Z,72.19
2023-03-19T06:34:24.252Z,72.18
2023-03-19T06:34:58.001Z,72.14
2023-03-19T06:35:31.552Z,72.12
2023-03-19T06:36:05.781Z,72.14
2023-03-19T06:36:39.753Z,72.12
2023-03-19T06:37:15.259Z,72.10
2023-03-19T06:37:49.253Z,72.08
2023-03-19T06:38:23.077Z,72.14
2023-03-19T06:38:56.963Z,72.24
2023-03-19T06:39:30.788Z,72.19
2023-03-19T06:40:06.654Z,72.19
2023-03-19T06:40:40.210Z,72.18
2023-03-19T06:41:14.093Z,72.25
2023-03-19T06:41:47.725Z,72.15
2023-03-19T06:42:24.858Z,72.14
2023-03-19T06:42:58.906Z,72.06
2023-03-19T06:43:35.969Z,72.10
2023-03-19T06:44:09.428Z,72.15
2023-03-19T06:44:42.896Z,72.16
2023-03-19T06:45:19.085Z,72.25
2023-03-19T06:45:52.742Z,72.22
2023-03-19T06:46:26.478Z,72.21
2023-03-19T06:47:00.123Z,72.15
2023-03-19T06:47:33.796Z,72.16
2023-03-19T06:48:07.363Z,72.23
2023-03-19T06:48:41.189Z,72.19
2023-03-19T06:49:15.726Z,72.27
2023-03-19T06:49:49.472Z,72.28
2023-03-19T06:50:23.552Z,72.28
2023-03-19T06:50:57.398Z,72.41
2023-03-19T06:51:31.307Z,72.47
2023-03-19T06:52:05.033Z,72.46
2023-03-19T06:52:38.728Z,72.61
2023-03-19T06:53:12.245Z,72.62
2023-03-19T06:53:45.937Z,72.60
2023-03-19T06:54:19.622Z,72.76
2023-03-19T06:54:52.964Z,72.72
2023-03-19T06:55:26.551Z,72.73
2023-03-19T06:56:00.302Z,72.78
2023-03-19T06:56:33.861Z,72.87
2023-03-19T06:57:07.857Z,73.09
2023-03-19T06:57:41.682Z,72.96
2023-03-19T06:58:15.604Z,72.99
2023-03-19T06:58:49.072Z,73.01
2023-03-19T06:59:22.447Z,72.95
2023-03-19T06:59:55.939Z,72.98
2023-03-19T07:00:29.643Z,72.99
2023-03-19T07:01:03.411Z,73.03
2023-03-19T07:01:37.629Z,72.98
2023-03-19T07:02:12.189Z,73.08
2023-03-19T07:02:45.909Z,73.12
2023-03-19T07:03:19.687Z,73.23
2023-03-19T07:03:53.680Z,73.31
2023-03-19T07:04:27.593Z,73.19
2023-03-19T07:05:01.611Z,73.23
2023-03-19T07:05:35.374Z,73.29
2023-03-19T07:06:09.077Z,73.38
2023-03-19T07:06:43.151Z,73.38
2023-03-19T07:07:16.622Z,73.20
2023-03-19T07:07:50.173Z,73.14
2023-03-19T07:08:24.056Z,73.02
2023-03-19T07:08:57.922Z,72.93
2023-03-19T07:09:32.369Z,72.92
2023-03-19T07:10:06.918Z,72.95
2023-03-19T07:10:41.077Z,72.90
2023-03-19T07:11:15.286Z,72.80
2023-03-19T07:11:49.063Z,72.77
2023-03-19T07:12:23.316Z,72.58
2023-03-19T07:12:57.495Z,72.34
2023-03-19T07:13:31.184Z,72.15
2023-03-19T07:14:05.199Z,72.12
2023-03-19T07:14:38.615Z,71.90
2023-03-19T07:15:12.777Z,71.74
2023-03-19T07:15:47.570Z,71.54
2023-03-19T07:16:21.317Z,71.36
2023-03-19T07:16:55.114Z,71.03
2023-03-19T07:17:28.676Z,70.72
2023-03-19T07:18:02.754Z,70.31
2023-03-19T07:18:36.854Z,69.98
2023-03-19T07:19:10.641Z,69.38
2023-03-19T07:19:44.418Z,68.73
2023-03-19T07:20:18.134Z,68.16
2023-03-19T07:20:53.173Z,67.80
2023-03-19T07:21:26.773Z,67.22
2023-03-19T07:22:00.583Z,66.96
2023-03-19T07:22:34.213Z,66.41
2023-03-19T07:23:07.946Z,66.00
2023-03-19T07:23:41.747Z,65.70
2023-03-19T07:24:15.916Z,65.16
2023-03-19T07:24:49.646Z,64.59
2023-03-19T07:25:23.536Z,64.39
2023-03-19T07:25:57.251Z,64.01
2023-03-19T07:26:30.973Z,63.43
2023-03-19T07:27:04.687Z,63.64
2023-03-19T07:27:38.178Z,63.48
2023-03-19T07:28:11.622Z,62.83
2023-03-19T07:28:45.110Z,62.40
2023-03-19T07:29:18.917Z,62.49
2023-03-19T07:29:52.757Z,62.43
2023-03-19T07:30:26.503Z,62.13
2023-03-19T07:31:00.006Z,61.85
2023-03-19T07:31:33.780Z,61.43
2023-03-19T07:32:07.964Z,60.95
2023-03-19T07:32:41.503Z,60.56
2023-03-19T07:33:15.214Z,60.04
2023-03-19T07:33:49.017Z,59.65
2023-03-19T07:34:23.474Z,59.28
2023-03-19T07:34:57.369Z,59.82
2023-03-19T07:35:31.211Z,59.88
2023-03-19T07:36:05.204Z,59.71
2023-03-19T07:36:38.970Z,58.95
2023-03-19T07:37:12.771Z,57.99
2023-03-19T07:37:47.060Z,57.25
2023-03-19T07:38:20.905Z,56.73
2023-03-19T07:38:54.562Z,56.75
2023-03-19T07:39:28.822Z,56.40
2023-03-19T07:40:02.644Z,55.89
2023-03-19T07:40:37.859Z,55.49
2023-03-19T07:41:12.389Z,55.11
2023-03-19T07:41:48.789Z,54.41
2023-03-19T07:42:22.276Z,54.34
2023-03-19T07:42:55.950Z,53.96
2023-03-19T07:43:31.526Z,53.79
2023-03-19T07:44:04.975Z,53.16
2023-03-19T07:44:38.680Z,53.02
2023-03-19T07:45:12.524Z,53.05
2023-03-19T07:45:46.214Z,52.84
2023-03-19T07:46:19.922Z,53.20
2023-03-19T07:46:53.366Z,53.24
2023-03-19T07:47:29.287Z,53.11
2023-03-19T07:48:03.760Z,53.25
2023-03-19T07:48:37.670Z,53.75
2023-03-19T07:49:11.263Z,53.99
2023-03-19T07:49:44.683Z,54.10
2023-03-19T07:50:18.653Z,54.15
2023-03-19T07:50:52.445Z,53.99
2023-03-19T07:51:26.682Z,54.19
2023-03-19T07:52:00.623Z,53.22
2023-03-19T07:52:34.144Z,53.30